createdAt,value
2019-05-10T00:00:27.111Z,0.40
2019-05-10T00:02:27.145Z,0.40
2019-05-10T00:03:27.137Z,0.50
2019-05-10T00:04:27.125Z,0.40
2019-05-10T00:05:27.126Z,0.40
2019-05-10T00:07:27.166Z,0.40
2019-05-10T00:08:27.123Z,0.50
2019-05-10T00:09:27.143Z,0.40
2019-05-10T00:10:27.122Z,0.30
2019-05-10T00:12:27.106Z,0.40
2019-05-10T00:13:27.146Z,0.30
2019-05-10T00:14:27.178Z,0.40
2019-05-10T00:15:27.111Z,0.60
2019-05-10T00:17:27.116Z,0.50
2019-05-10T00:18:27.130Z,0.30
2019-05-10T00:19:27.120Z,0.40
2019-05-10T00:20:27.153Z,0.50
2019-05-10T00:22:27.132Z,0.50
2019-05-10T00:23:27.160Z,0.30
2019-05-10T00:24:27.121Z,0.30
2019-05-10T00:25:27.204Z,0.20
2019-05-10T00:27:27.156Z,0.30
2019-05-10T00:28:27.140Z,0.40
2019-05-10T00:29:27.154Z,0.30
2019-05-10T00:30:27.142Z,0.30
2019-05-10T00:32:27.133Z,0.50
2019-05-10T00:33:27.177Z,0.40
2019-05-10T00:34:27.193Z,0.30
2019-05-10T00:35:27.155Z,0.30
2019-05-10T00:37:27.155Z,0.20
2019-05-10T00:38:27.153Z,0.30
2019-05-10T00:39:27.149Z,0.80
2019-05-10T00:40:27.191Z,0.30
2019-05-10T00:42:27.163Z,0.30
2019-05-10T00:43:27.158Z,0.40
2019-05-10T00:44:27.147Z,0.30
2019-05-10T00:45:27.188Z,0.70
2019-05-10T00:47:27.178Z,0.20
2019-05-10T00:48:27.196Z,0.50
2019-05-10T00:49:27.171Z,0.30
2019-05-10T00:50:27.188Z,0.50
2019-05-10T00:52:27.163Z,0.40
2019-05-10T00:53:27.167Z,0.20
2019-05-10T00:54:27.174Z,0.40
2019-05-10T00:55:27.161Z,0.20
2019-05-10T00:57:27.160Z,0.50
2019-05-10T00:58:27.174Z,0.50
2019-05-10T00:59:27.215Z,0.30
2019-05-10T01:00:27.192Z,0.20
2019-05-10T01:02:27.175Z,0.40
2019-05-10T01:03:27.225Z,0.30
2019-05-10T01:04:27.189Z,0.30
2019-05-10T01:05:27.167Z,0.30
2019-05-10T01:07:27.217Z,0.60
2019-05-10T01:08:27.213Z,0.30
2019-05-10T01:09:27.184Z,0.30
2019-05-10T01:10:27.191Z,0.30
2019-05-10T01:12:27.214Z,0.30
2019-05-10T01:13:27.167Z,0.40
2019-05-10T01:14:27.204Z,0.30
2019-05-10T01:15:27.175Z,0.40
2019-05-10T01:17:27.193Z,0.20
2019-05-10T01:18:27.188Z,0.30
2019-05-10T01:19:27.240Z,0.30
2019-05-10T01:20:27.193Z,0.40
2019-05-10T01:22:27.210Z,0.20
2019-05-10T01:23:27.212Z,0.20
2019-05-10T01:24:27.229Z,0.30
2019-05-10T01:25:35.332Z,0.20
2019-05-10T01:27:27.188Z,0.30
2019-05-10T01:28:27.196Z,0.30
2019-05-10T01:29:27.245Z,0.20
2019-05-10T01:30:27.190Z,0.50
2019-05-10T01:32:27.213Z,0.20
2019-05-10T01:33:27.196Z,0.50
2019-05-10T01:34:27.215Z,0.30
2019-05-10T01:35:27.215Z,0.50
2019-05-10T01:37:27.216Z,0.20
2019-05-10T01:38:27.249Z,0.30
2019-05-10T01:39:27.214Z,0.30
2019-05-10T01:40:27.259Z,0.20
2019-05-10T01:42:27.242Z,0.20
2019-05-10T01:43:27.224Z,0.30
2019-05-10T01:44:27.227Z,0.20
2019-05-10T01:45:27.226Z,0.30
2019-05-10T01:47:27.245Z,0.20
2019-05-10T01:48:27.218Z,0.50
2019-05-10T01:49:27.246Z,0.20
2019-05-10T01:50:27.241Z,0.30
2019-05-10T01:52:27.211Z,0.20
2019-05-10T01:53:27.247Z,0.20
2019-05-10T01:54:27.237Z,0.50
2019-05-10T01:55:27.230Z,0.50
2019-05-10T01:57:27.310Z,0.20
2019-05-10T01:58:27.228Z,0.30
2019-05-10T01:59:27.272Z,0.40
2019-05-10T02:00:27.239Z,0.30
2019-05-10T02:03:27.254Z,0.30
2019-05-10T02:04:27.263Z,0.20
2019-05-10T02:05:27.276Z,0.30
2019-05-10T02:06:27.233Z,0.40
2019-05-10T02:08:27.286Z,0.30
2019-05-10T02:09:27.274Z,0.30
2019-05-10T02:10:27.249Z,0.20
2019-05-10T02:11:27.227Z,0.30
2019-05-10T02:13:27.253Z,0.30
2019-05-10T02:14:27.230Z,0.30
2019-05-10T02:15:27.247Z,0.20
2019-05-10T02:16:27.242Z,0.20
2019-05-10T02:18:27.256Z,0.30
2019-05-10T02:19:27.255Z,0.30
2019-05-10T02:20:27.245Z,0.40
2019-05-10T02:21:27.207Z,0.20
2019-05-10T02:24:27.265Z,0.10
2019-05-10T02:25:27.297Z,0.30
2019-05-10T02:27:27.317Z,0.30
2019-05-10T02:28:27.245Z,0.20
2019-05-10T02:29:27.297Z,0.30
2019-05-10T02:30:27.271Z,0.30
2019-05-10T02:32:27.244Z,0.20
2019-05-10T02:33:27.253Z,0.50
2019-05-10T02:34:27.305Z,0.50
2019-05-10T02:35:27.276Z,0.30
2019-05-10T02:37:27.298Z,0.20
2019-05-10T02:38:27.265Z,0.20
2019-05-10T02:39:27.283Z,0.30
2019-05-10T02:40:27.280Z,0.30
2019-05-10T02:43:27.281Z,0.30
2019-05-10T02:44:27.297Z,0.20
2019-05-10T02:45:27.305Z,0.30
2019-05-10T02:46:27.284Z,0.30
2019-05-10T02:48:27.293Z,0.20
2019-05-10T02:49:27.297Z,0.20
2019-05-10T02:50:27.291Z,0.30
2019-05-10T02:51:27.282Z,0.50
2019-05-10T02:53:27.269Z,0.30
2019-05-10T02:54:27.269Z,0.60
2019-05-10T02:55:27.320Z,0.30
2019-05-10T02:56:30.809Z,0.20
2019-05-10T02:58:27.285Z,0.40
2019-05-10T02:59:27.294Z,0.20
2019-05-10T03:00:27.274Z,0.30
2019-05-10T03:01:27.318Z,0.20
2019-05-10T03:03:27.335Z,0.30
2019-05-10T03:04:27.279Z,0.30
2019-05-10T03:05:27.282Z,0.20
2019-05-10T03:06:27.315Z,0.30
2019-05-10T03:09:27.299Z,0.30
2019-05-10T03:10:27.286Z,0.40
2019-05-10T03:11:27.307Z,0.20
2019-05-10T03:12:27.319Z,0.20
2019-05-10T03:14:27.332Z,0.20
2019-05-10T03:15:27.293Z,0.20
2019-05-10T03:16:27.329Z,0.20
2019-05-10T03:17:27.318Z,0.40
2019-05-10T03:19:27.323Z,0.20
2019-05-10T03:20:27.316Z,0.30
2019-05-10T03:21:27.284Z,0.50
2019-05-10T03:22:27.340Z,0.20
2019-05-10T03:24:28.140Z,0.20
2019-05-10T03:25:27.341Z,0.20
2019-05-10T03:26:27.313Z,0.30
2019-05-10T03:27:27.326Z,0.30
2019-05-10T03:29:27.358Z,0.20
2019-05-10T03:30:27.322Z,0.30
2019-05-10T03:31:27.374Z,0.30
2019-05-10T03:32:27.334Z,0.40
2019-05-10T03:34:27.350Z,0.20
2019-05-10T03:35:27.357Z,0.20
2019-05-10T03:36:27.342Z,0.20
2019-05-10T03:37:27.342Z,0.20
2019-05-10T03:40:27.338Z,0.40
2019-05-10T03:41:27.320Z,0.20
2019-05-10T03:42:27.326Z,0.30
2019-05-10T03:43:27.368Z,0.20
2019-05-10T03:45:27.370Z,0.20
2019-05-10T03:46:27.353Z,0.40
2019-05-10T03:47:27.329Z,0.30
2019-05-10T03:48:27.329Z,0.20
2019-05-10T03:51:27.389Z,0.30
2019-05-10T03:52:27.330Z,0.30
2019-05-10T03:53:27.383Z,0.20
2019-05-10T03:54:27.375Z,0.40
2019-05-10T03:57:27.360Z,0.40
2019-05-10T03:58:27.352Z,0.20
2019-05-10T03:59:27.343Z,0.30
2019-05-10T04:00:27.375Z,0.20
2019-05-10T04:02:27.414Z,0.40
2019-05-10T04:03:27.362Z,0.20
2019-05-10T04:04:27.373Z,0.20
2019-05-10T04:05:27.344Z,0.40
2019-05-10T04:07:27.369Z,0.20
2019-05-10T04:08:27.381Z,0.40
2019-05-10T04:09:27.376Z,0.20
2019-05-10T04:10:27.394Z,0.20
2019-05-10T04:12:27.397Z,0.30
2019-05-10T04:13:27.391Z,0.20
2019-05-10T04:14:27.355Z,0.40
2019-05-10T04:15:27.382Z,0.20
2019-05-10T04:17:27.410Z,0.20
2019-05-10T04:18:27.353Z,0.50
2019-05-10T04:19:27.357Z,0.20
2019-05-10T04:20:27.374Z,0.20
2019-05-10T04:22:27.404Z,0.10
2019-05-10T04:23:27.375Z,0.20
2019-05-10T04:24:27.425Z,0.20
2019-05-10T04:25:27.398Z,0.50
2019-05-10T04:27:32.559Z,0.20
2019-05-10T04:28:27.390Z,0.30
2019-05-10T04:29:27.352Z,0.30
2019-05-10T04:30:31.549Z,0.20
2019-05-10T04:32:27.377Z,0.50
2019-05-10T04:33:27.380Z,0.30
2019-05-10T04:34:27.361Z,0.30
2019-05-10T04:35:27.422Z,0.30
2019-05-10T04:37:27.430Z,0.20
2019-05-10T04:38:27.429Z,0.30
2019-05-10T04:39:27.482Z,0.20
2019-05-10T04:40:27.474Z,0.20
2019-05-10T04:42:27.406Z,0.30
2019-05-10T04:43:27.428Z,0.20
2019-05-10T04:44:27.405Z,0.20
2019-05-10T04:45:27.384Z,0.30
2019-05-10T04:47:27.371Z,0.40
2019-05-10T04:48:27.440Z,0.20
2019-05-10T04:49:27.410Z,0.20
2019-05-10T04:50:27.380Z,0.20
2019-05-10T04:52:27.424Z,0.20
2019-05-10T04:53:27.392Z,0.30
2019-05-10T04:54:27.399Z,0.20
2019-05-10T04:55:27.407Z,0.30
2019-05-10T04:57:27.461Z,0.20
2019-05-10T04:58:27.449Z,0.20
2019-05-10T04:59:27.377Z,0.30
2019-05-10T05:00:27.385Z,0.10
2019-05-10T05:02:27.444Z,0.20
2019-05-10T05:03:27.433Z,0.60
2019-05-10T05:04:27.434Z,0.20
2019-05-10T05:05:27.454Z,0.20
2019-05-10T05:07:27.410Z,0.40
2019-05-10T05:08:27.418Z,0.20
2019-05-10T05:09:27.433Z,0.30
2019-05-10T05:10:27.403Z,0.20
2019-05-10T05:12:27.429Z,0.20
2019-05-10T05:13:27.489Z,0.20
2019-05-10T05:14:27.421Z,0.30
2019-05-10T05:15:27.415Z,0.20
2019-05-10T05:17:27.445Z,0.30
2019-05-10T05:18:27.457Z,0.10
2019-05-10T05:19:27.434Z,0.20
2019-05-10T05:20:27.443Z,0.40
2019-05-10T05:23:27.473Z,0.20
2019-05-10T05:24:27.431Z,0.20
2019-05-10T05:25:27.451Z,0.20
2019-05-10T05:26:27.446Z,0.20
2019-05-10T05:28:27.475Z,0.20
2019-05-10T05:29:27.446Z,0.30
2019-05-10T05:30:27.455Z,0.20
2019-05-10T05:32:27.439Z,0.20
2019-05-10T05:33:27.468Z,0.20
2019-05-10T05:34:27.423Z,0.20
2019-05-10T05:35:27.439Z,0.10
2019-05-10T05:37:27.424Z,0.20
2019-05-10T05:39:27.462Z,0.20
2019-05-10T05:40:27.518Z,0.20
2019-05-10T05:41:27.448Z,0.40
2019-05-10T05:42:29.297Z,0.20
2019-05-10T05:44:27.887Z,0.30
2019-05-10T05:45:28.299Z,0.20
2019-05-10T05:46:27.516Z,0.10
2019-05-10T05:47:27.441Z,0.20
2019-05-10T05:49:27.435Z,0.30
2019-05-10T05:50:27.495Z,0.20
2019-05-10T05:51:27.459Z,0.20
2019-05-10T05:52:27.478Z,0.20
2019-05-10T05:56:27.502Z,0.20
2019-05-10T05:57:29.448Z,0.30
2019-05-10T05:58:27.562Z,0.30
2019-05-10T05:59:27.477Z,0.10
2019-05-10T06:01:29.589Z,0.20
2019-05-10T06:02:27.464Z,0.30
2019-05-10T06:03:29.343Z,0.20
2019-05-10T06:04:27.452Z,0.20
2019-05-10T06:06:27.454Z,0.10
2019-05-10T06:08:29.991Z,0.20
2019-05-10T06:09:31.930Z,0.30
2019-05-10T06:10:27.486Z,0.40
2019-05-10T06:11:29.874Z,0.20
2019-05-10T06:13:30.516Z,0.10
2019-05-10T06:14:27.521Z,0.30
2019-05-10T06:15:29.109Z,0.30
2019-05-10T06:16:27.483Z,0.20
2019-05-10T06:18:27.460Z,0.30
2019-05-10T06:19:29.612Z,0.20
2019-05-10T06:20:27.473Z,0.20
2019-05-10T06:21:27.481Z,0.20
2019-05-10T06:24:27.528Z,0.20
2019-05-10T06:25:38.819Z,0.30
2019-05-10T06:26:28.738Z,0.20
2019-05-10T06:27:27.497Z,0.10
2019-05-10T06:30:27.527Z,0.20
2019-05-10T06:31:27.539Z,0.20
2019-05-10T06:32:27.946Z,0.20
2019-05-10T06:33:27.528Z,0.30
2019-05-10T06:36:27.520Z,0.30
2019-05-10T06:37:31.070Z,0.20
2019-05-10T06:38:27.535Z,0.30
2019-05-10T06:39:27.508Z,0.20
2019-05-10T06:41:27.530Z,0.20
2019-05-10T06:42:28.936Z,0.20
2019-05-10T06:43:27.552Z,0.30
2019-05-10T06:44:31.371Z,0.20
2019-05-10T06:46:29.671Z,0.20
2019-05-10T06:47:27.545Z,0.20
2019-05-10T06:48:32.936Z,0.20
2019-05-10T06:49:27.519Z,0.20
2019-05-10T06:51:27.535Z,0.30
2019-05-10T06:52:28.295Z,0.20
2019-05-10T06:53:27.559Z,0.20
2019-05-10T06:54:27.535Z,0.20
2019-05-10T06:56:27.508Z,0.20
2019-05-10T06:57:27.545Z,0.20
2019-05-10T06:58:30.454Z,0.20
2019-05-10T06:59:27.506Z,0.10
2019-05-10T07:01:27.539Z,0.20
2019-05-10T07:02:31.852Z,0.10
2019-05-10T07:03:27.507Z,0.40
2019-05-10T07:04:27.572Z,0.10
2019-05-10T07:06:27.571Z,0.20
2019-05-10T07:07:43.436Z,0.10
2019-05-10T07:08:27.538Z,0.60
2019-05-10T07:09:27.552Z,0.20
2019-05-10T07:11:27.539Z,0.20
2019-05-10T07:12:30.179Z,0.30
2019-05-10T07:13:27.574Z,0.30
2019-05-10T07:14:27.533Z,0.20
2019-05-10T07:16:27.552Z,0.10
2019-05-10T07:17:27.531Z,0.20
2019-05-10T07:18:27.580Z,0.20
2019-05-10T07:19:28.816Z,0.50
2019-05-10T07:22:29.027Z,0.10
2019-05-10T07:23:30.047Z,0.20
2019-05-10T07:24:27.544Z,0.40
2019-05-10T07:25:27.548Z,0.20
2019-05-10T07:27:27.542Z,0.20
2019-05-10T07:28:27.562Z,0.20
2019-05-10T07:29:30.168Z,0.20
2019-05-10T07:30:27.592Z,0.10
2019-05-10T07:32:27.557Z,0.10
2019-05-10T07:33:27.539Z,0.40
2019-05-10T07:34:27.576Z,0.20
2019-05-10T07:35:30.856Z,1.00
2019-05-10T07:37:27.603Z,0.30
2019-05-10T07:38:31.006Z,0.10
2019-05-10T07:39:27.560Z,0.20
2019-05-10T07:40:27.554Z,0.20
2019-05-10T07:42:27.570Z,0.20
2019-05-10T07:43:29.050Z,0.20
2019-05-10T07:44:27.593Z,0.30
2019-05-10T07:45:27.581Z,0.10
2019-05-10T07:47:30.291Z,0.20
2019-05-10T07:48:27.576Z,0.20
2019-05-10T07:49:30.478Z,0.10
2019-05-10T07:50:27.555Z,0.20
2019-05-10T07:52:27.570Z,0.40
2019-05-10T07:53:27.599Z,0.20
2019-05-10T07:54:27.579Z,0.20
2019-05-10T07:55:29.808Z,0.40
2019-05-10T07:57:27.566Z,0.10
2019-05-10T07:58:27.570Z,0.20
2019-05-10T07:59:30.327Z,0.10
2019-05-10T08:00:27.616Z,0.50
2019-05-10T08:03:29.782Z,0.40
2019-05-10T08:04:32.305Z,0.30
2019-05-10T08:05:29.601Z,0.30
2019-05-10T08:07:29.438Z,0.30
2019-05-10T08:08:29.640Z,0.20
2019-05-10T08:09:31.500Z,0.30
2019-05-10T08:10:29.050Z,0.20
2019-05-10T08:12:28.822Z,0.20
2019-05-10T08:13:28.474Z,0.80
2019-05-10T08:14:28.998Z,0.10
2019-05-10T08:15:30.561Z,0.20
2019-05-10T08:17:28.713Z,0.20
2019-05-10T08:18:29.381Z,0.20
2019-05-10T08:19:27.635Z,0.10
2019-05-10T08:20:42.199Z,0.20
2019-05-10T08:22:27.636Z,0.20
2019-05-10T08:23:28.166Z,0.20
2019-05-10T08:24:27.624Z,0.20
2019-05-10T08:25:33.049Z,0.20
2019-05-10T08:27:27.604Z,0.20
2019-05-10T08:28:32.622Z,0.20
2019-05-10T08:29:27.639Z,0.20
2019-05-10T08:30:29.261Z,0.10
2019-05-10T08:32:29.870Z,0.20
2019-05-10T08:33:27.616Z,0.30
2019-05-10T08:34:28.828Z,0.20
2019-05-10T08:35:27.592Z,0.20
2019-05-10T08:37:33.432Z,0.10
2019-05-10T08:38:27.608Z,0.20
2019-05-10T08:39:27.677Z,0.10
2019-05-10T08:40:34.316Z,0.20
2019-05-10T08:42:42.833Z,0.10
2019-05-10T08:43:33.119Z,0.30
2019-05-10T08:44:27.622Z,0.20
2019-05-10T08:45:27.630Z,0.20
2019-05-10T08:47:28.003Z,0.10
2019-05-10T08:48:27.840Z,0.20
2019-05-10T08:49:40.772Z,0.20
2019-05-10T08:50:44.181Z,0.10
2019-05-10T08:52:31.141Z,0.20
2019-05-10T08:53:27.622Z,0.20
2019-05-10T08:54:27.674Z,0.10
2019-05-10T08:55:27.674Z,0.10
2019-05-10T08:57:27.662Z,0.10
2019-05-10T08:58:31.715Z,0.20
2019-05-10T08:59:30.703Z,0.20
2019-05-10T09:00:41.646Z,0.20
2019-05-10T09:03:27.655Z,0.20
2019-05-10T09:04:33.442Z,0.30
2019-05-10T09:05:29.272Z,0.50
2019-05-10T09:07:29.342Z,0.20
2019-05-10T09:08:31.365Z,0.20
2019-05-10T09:09:27.669Z,0.30
2019-05-10T09:10:27.688Z,0.20
2019-05-10T09:13:33.553Z,0.10
2019-05-10T09:14:27.648Z,0.40
2019-05-10T09:15:27.683Z,0.40
2019-05-10T09:16:29.143Z,0.20
2019-05-10T09:18:27.724Z,0.20
2019-05-10T09:20:27.641Z,0.20
2019-05-10T09:21:27.668Z,0.20
2019-05-10T09:23:27.650Z,0.20
2019-05-10T09:24:27.662Z,0.10
2019-05-10T09:25:30.904Z,0.10
2019-05-10T09:26:27.650Z,0.10
2019-05-10T09:28:27.698Z,0.10
2019-05-10T09:29:32.163Z,0.20
2019-05-10T09:30:27.711Z,0.10
2019-05-10T09:31:27.666Z,0.70
2019-05-10T09:33:27.697Z,0.10
2019-05-10T09:34:27.712Z,0.10
2019-05-10T09:35:27.659Z,0.10
2019-05-10T09:36:31.011Z,0.20
2019-05-10T09:38:28.763Z,0.20
2019-05-10T09:39:27.715Z,0.20
2019-05-10T09:40:27.667Z,0.10
2019-05-10T09:41:32.450Z,0.20
2019-05-10T09:44:27.703Z,0.10
2019-05-10T09:45:27.697Z,0.20
2019-05-10T09:46:27.702Z,0.10
2019-05-10T09:47:27.725Z,0.20
2019-05-10T09:49:27.748Z,0.20
2019-05-10T09:50:30.405Z,0.20
2019-05-10T09:51:30.361Z,0.10
2019-05-10T09:52:27.743Z,0.20
2019-05-10T09:54:29.525Z,0.20
2019-05-10T09:55:28.073Z,0.10
2019-05-10T09:56:27.774Z,0.10
2019-05-10T09:57:27.909Z,0.20
2019-05-10T09:59:27.865Z,0.20
2019-05-10T10:00:30.272Z,0.20
2019-05-10T10:01:28.260Z,0.30
2019-05-10T10:02:33.627Z,0.10
2019-05-10T10:05:27.680Z,0.20
2019-05-10T10:06:29.706Z,0.50
2019-05-10T10:07:31.829Z,0.40
2019-05-10T10:08:28.253Z,0.10
2019-05-10T10:10:32.234Z,0.20
2019-05-10T10:11:27.913Z,0.10
2019-05-10T10:12:28.901Z,0.20
2019-05-10T10:13:39.324Z,0.10
2019-05-10T10:15:33.250Z,0.10
2019-05-10T10:16:28.263Z,0.10
2019-05-10T10:17:30.561Z,0.20
2019-05-10T10:18:28.395Z,0.10
2019-05-10T10:21:35.067Z,0.10
2019-05-10T10:22:27.874Z,0.10
2019-05-10T10:23:33.055Z,0.10
2019-05-10T10:24:28.478Z,0.40
2019-05-10T10:26:27.737Z,0.10
2019-05-10T10:27:34.235Z,0.20
2019-05-10T10:28:28.584Z,0.10
2019-05-10T10:29:28.764Z,0.20
2019-05-10T10:31:33.038Z,0.10
2019-05-10T10:32:31.673Z,0.10
2019-05-10T10:33:28.969Z,0.10
2019-05-10T10:34:27.775Z,0.20
2019-05-10T10:37:29.017Z,0.10
2019-05-10T10:38:31.060Z,0.20
2019-05-10T10:39:27.840Z,0.10
2019-05-10T10:40:28.043Z,0.10
2019-05-10T10:42:27.739Z,0.20
2019-05-10T10:43:27.772Z,0.20
2019-05-10T10:44:27.783Z,0.10
2019-05-10T10:45:27.794Z,0.20
2019-05-10T10:47:30.961Z,0.20
2019-05-10T10:48:28.436Z,0.20
2019-05-10T10:49:31.680Z,0.10
2019-05-10T10:50:27.782Z,0.10
2019-05-10T10:52:27.884Z,0.20
2019-05-10T10:53:28.371Z,0.10
2019-05-10T10:54:33.794Z,0.10
2019-05-10T10:55:32.426Z,0.10
2019-05-10T10:58:27.786Z,0.20
2019-05-10T10:59:27.763Z,0.10
2019-05-10T11:00:27.750Z,0.20
2019-05-10T11:01:33.238Z,0.10
2019-05-10T11:03:30.220Z,0.10
2019-05-10T11:04:27.779Z,0.20
2019-05-10T11:05:27.747Z,0.10
2019-05-10T11:06:27.765Z,0.30
2019-05-10T11:08:27.789Z,0.20
2019-05-10T11:09:27.800Z,0.20
2019-05-10T11:10:27.819Z,0.40
2019-05-10T11:11:32.913Z,0.40
2019-05-10T11:13:41.587Z,0.40
2019-05-10T11:14:31.944Z,0.30
2019-05-10T11:15:30.195Z,0.40
2019-05-10T11:16:27.808Z,0.40
2019-05-10T11:19:27.796Z,0.40
2019-05-10T11:20:27.790Z,0.20
2019-05-10T11:21:28.622Z,0.50
2019-05-10T11:22:27.808Z,0.30
2019-05-10T11:24:27.815Z,0.30
2019-05-10T11:25:27.835Z,0.30
2019-05-10T11:26:32.940Z,0.40
2019-05-10T11:27:27.820Z,0.30
2019-05-10T11:29:28.086Z,0.60
2019-05-10T11:30:27.778Z,0.40
2019-05-10T11:31:27.831Z,0.50
2019-05-10T11:32:27.779Z,0.60
2019-05-10T11:34:30.552Z,0.60
2019-05-10T11:35:31.111Z,0.30
2019-05-10T11:36:27.792Z,0.30
2019-05-10T11:37:32.929Z,0.30
2019-05-10T11:39:34.761Z,0.70
2019-05-10T11:40:32.161Z,0.40
2019-05-10T11:41:27.832Z,0.40
2019-05-10T11:42:27.793Z,0.40
2019-05-10T11:44:27.830Z,0.40
2019-05-10T11:45:34.431Z,3.10
2019-05-10T11:46:28.169Z,2.20
2019-05-10T11:47:27.836Z,4.50
2019-05-10T11:49:27.801Z,6.30
2019-05-10T11:51:28.061Z,6.20
2019-05-10T11:52:29.235Z,5.70
2019-05-10T11:54:27.836Z,5.10
2019-05-10T11:55:27.829Z,4.90
2019-05-10T11:56:28.090Z,4.40
2019-05-10T11:57:27.805Z,4.00
2019-05-10T11:59:04.843Z,5.00
2019-05-10T11:59:33.879Z,7.30
2019-05-10T12:00:31.919Z,5.80
2019-05-10T12:01:27.846Z,4.10
2019-05-10T12:02:37.301Z,4.90
2019-05-10T12:04:36.241Z,3.30
2019-05-10T12:05:27.825Z,4.90
2019-05-10T12:06:27.827Z,5.10
2019-05-10T12:07:35.159Z,3.10
2019-05-10T12:09:27.834Z,5.60
2019-05-10T12:10:27.844Z,3.30
2019-05-10T12:12:45.262Z,3.50
2019-05-10T12:14:27.833Z,2.80
2019-05-10T12:15:27.856Z,2.20
2019-05-10T12:16:27.882Z,3.40
2019-05-10T12:17:27.891Z,4.00
2019-05-10T12:19:36.874Z,3.60
2019-05-10T12:20:41.490Z,3.20
2019-05-10T12:21:27.871Z,2.10
2019-05-10T12:22:37.591Z,2.70
2019-05-10T12:24:45.212Z,3.00
2019-05-10T12:26:31.160Z,3.80
2019-05-10T12:27:41.851Z,2.00
2019-05-10T12:29:27.875Z,2.60
2019-05-10T12:30:29.402Z,3.30
2019-05-10T12:31:27.878Z,5.40
2019-05-10T12:32:35.202Z,2.00
2019-05-10T12:34:27.873Z,2.00
2019-05-10T12:35:35.614Z,1.80
2019-05-10T12:36:27.883Z,2.00
2019-05-10T12:37:27.849Z,2.60
2019-05-10T12:39:27.905Z,1.40
2019-05-10T12:40:27.899Z,3.10
2019-05-10T12:41:27.902Z,1.40
2019-05-10T12:42:27.843Z,2.80
2019-05-10T12:44:27.911Z,3.50
2019-05-10T12:45:27.900Z,2.90
2019-05-10T12:46:27.841Z,2.50
2019-05-10T12:47:27.894Z,3.20
2019-05-10T12:49:27.912Z,1.90
2019-05-10T12:50:27.914Z,2.10
2019-05-10T12:51:27.891Z,1.90
2019-05-10T12:52:28.885Z,1.70
2019-05-10T12:55:27.886Z,3.00
2019-05-10T12:56:27.923Z,1.50
2019-05-10T12:57:27.866Z,1.10
2019-05-10T12:58:27.888Z,2.30
2019-05-10T13:00:27.917Z,1.30
2019-05-10T13:02:27.903Z,2.50
2019-05-10T13:03:31.210Z,2.00
2019-05-10T13:04:40.173Z,2.20
2019-05-10T13:05:31.901Z,1.50
2019-05-10T13:07:27.905Z,1.70
2019-05-10T13:08:27.923Z,1.70
2019-05-10T13:09:38.666Z,1.40
2019-05-10T13:10:28.053Z,2.80
2019-05-10T13:12:27.908Z,1.40
2019-05-10T13:13:30.059Z,1.50
2019-05-10T13:14:29.254Z,1.20
2019-05-10T13:15:31.068Z,2.90
2019-05-10T13:18:48.093Z,1.50
2019-05-10T13:19:27.920Z,1.20
2019-05-10T13:20:30.961Z,1.10
2019-05-10T13:21:30.299Z,1.80
2019-05-10T13:25:27.906Z,1.70
2019-05-10T13:26:27.915Z,1.10
2019-05-10T13:27:27.914Z,1.50
2019-05-10T13:28:27.948Z,2.40
2019-05-10T13:30:29.773Z,1.70
2019-05-10T13:31:27.897Z,2.00
2019-05-10T13:32:27.954Z,1.80
2019-05-10T13:33:29.265Z,1.50
2019-05-10T13:36:30.672Z,1.60
2019-05-10T13:37:27.940Z,0.80
2019-05-10T13:38:27.933Z,2.80
2019-05-10T13:39:27.951Z,1.30
2019-05-10T13:41:27.902Z,1.40
2019-05-10T13:42:27.940Z,1.00
2019-05-10T13:43:28.377Z,2.00
2019-05-10T13:44:27.913Z,1.00
2019-05-10T13:46:27.896Z,1.00
2019-05-10T13:47:27.972Z,1.00
2019-05-10T13:48:27.919Z,1.60
2019-05-10T13:49:27.933Z,0.90
2019-05-10T13:51:27.952Z,1.30
2019-05-10T13:52:29.986Z,1.40
2019-05-10T13:53:27.968Z,1.00
2019-05-10T13:54:31.225Z,1.00
2019-05-10T13:56:27.920Z,1.30
2019-05-10T13:57:27.984Z,2.30
2019-05-10T13:58:27.926Z,1.20
2019-05-10T13:59:27.983Z,1.10
2019-05-10T14:02:32.524Z,1.80
2019-05-10T14:03:42.208Z,1.10
2019-05-10T14:04:27.920Z,1.50
2019-05-10T14:05:27.944Z,1.40
2019-05-10T14:07:27.988Z,1.10
2019-05-10T14:08:27.977Z,1.90
2019-05-10T14:09:27.967Z,1.10
2019-05-10T14:10:27.963Z,1.10
2019-05-10T14:13:28.004Z,1.20
2019-05-10T14:14:27.969Z,1.10
2019-05-10T14:15:27.987Z,1.50
2019-05-10T14:16:27.981Z,1.40
2019-05-10T14:18:27.976Z,0.80
2019-05-10T14:19:27.948Z,1.70
2019-05-10T14:20:28.006Z,2.60
2019-05-10T14:21:27.980Z,0.70
2019-05-10T14:24:27.990Z,0.80
2019-05-10T14:25:29.532Z,2.20
2019-05-10T14:26:27.952Z,1.00
2019-05-10T14:27:29.896Z,0.90
2019-05-10T14:29:34.165Z,1.40
2019-05-10T14:30:27.989Z,0.80
2019-05-10T14:31:28.032Z,1.20
2019-05-10T14:32:27.985Z,1.40
2019-05-10T14:34:27.993Z,0.70
2019-05-10T14:35:27.966Z,1.40
2019-05-10T14:36:28.021Z,0.70
2019-05-10T14:37:27.959Z,1.10
2019-05-10T14:39:27.975Z,2.80
2019-05-10T14:40:30.369Z,1.00
2019-05-10T14:41:27.968Z,0.80
2019-05-10T14:42:30.919Z,1.00
2019-05-10T14:44:27.972Z,0.80
2019-05-10T14:45:28.009Z,0.80
2019-05-10T14:46:28.031Z,0.70
2019-05-10T14:47:28.020Z,0.80
2019-05-10T14:49:28.010Z,1.00
2019-05-10T14:50:28.466Z,1.00
2019-05-10T14:51:44.128Z,1.20
2019-05-10T14:52:28.044Z,0.90
2019-05-10T14:54:42.805Z,0.90
2019-05-10T14:56:28.015Z,0.70
2019-05-10T14:57:28.029Z,0.90
2019-05-10T14:59:28.007Z,1.60
2019-05-10T15:00:28.021Z,0.70
2019-05-10T15:01:28.026Z,1.30
2019-05-10T15:02:28.030Z,0.80
2019-05-10T15:04:44.445Z,1.00
2019-05-10T15:05:28.057Z,0.60
2019-05-10T15:06:30.689Z,0.70
2019-05-10T15:07:28.031Z,1.00
2019-05-10T15:09:27.976Z,0.70
2019-05-10T15:10:32.853Z,0.80
2019-05-10T15:11:31.591Z,0.80
2019-05-10T15:12:27.991Z,1.60
2019-05-10T15:15:31.100Z,0.80
2019-05-10T15:16:30.782Z,0.80
2019-05-10T15:17:30.333Z,0.80
2019-05-10T15:18:28.014Z,1.20
2019-05-10T15:20:28.002Z,0.80
2019-05-10T15:21:28.054Z,0.80
2019-05-10T15:22:28.022Z,0.90
2019-05-10T15:23:28.004Z,1.00
2019-05-10T15:26:28.079Z,0.90
2019-05-10T15:27:28.034Z,1.50
2019-05-10T15:28:34.607Z,1.00
2019-05-10T15:29:28.081Z,0.70
2019-05-10T15:31:29.165Z,1.50
2019-05-10T15:32:28.019Z,0.80
2019-05-10T15:33:28.021Z,1.10
2019-05-10T15:34:28.026Z,0.80
2019-05-10T15:36:29.647Z,0.90
2019-05-10T15:37:28.066Z,0.80
2019-05-10T15:38:28.076Z,1.00
2019-05-10T15:39:29.097Z,0.70
2019-05-10T15:41:28.074Z,0.80
2019-05-10T15:42:30.383Z,1.20
2019-05-10T15:43:28.044Z,1.40
2019-05-10T15:44:31.307Z,2.80
2019-05-10T15:46:35.309Z,2.80
2019-05-10T15:47:28.061Z,1.40
2019-05-10T15:48:28.059Z,1.60
2019-05-10T15:49:28.032Z,4.90
2019-05-10T15:51:36.251Z,2.60
2019-05-10T15:52:28.084Z,2.50
2019-05-10T15:53:28.103Z,2.20
2019-05-10T15:54:28.037Z,1.90
2019-05-10T15:56:28.074Z,2.30
2019-05-10T15:57:31.813Z,2.10
2019-05-10T15:58:30.614Z,2.70
2019-05-10T15:59:28.078Z,1.70
2019-05-10T16:01:29.190Z,2.00
2019-05-10T16:02:28.060Z,3.40
2019-05-10T16:03:28.063Z,2.10
2019-05-10T16:04:28.074Z,2.70
2019-05-10T16:06:32.661Z,1.90
2019-05-10T16:07:28.058Z,1.60
2019-05-10T16:08:30.459Z,2.10
2019-05-10T16:09:28.045Z,3.10
2019-05-10T16:11:28.068Z,2.50
2019-05-10T16:12:28.104Z,1.00
2019-05-10T16:13:28.088Z,1.80
2019-05-10T16:14:33.133Z,2.40
2019-05-10T16:16:30.417Z,2.90
2019-05-10T16:17:28.100Z,1.90
2019-05-10T16:18:33.299Z,2.40
2019-05-10T16:19:28.087Z,2.60
2019-05-10T16:21:28.085Z,1.50
2019-05-10T16:22:30.237Z,0.90
2019-05-10T16:23:28.081Z,2.30
2019-05-10T16:24:28.245Z,2.40
2019-05-10T16:26:28.106Z,1.80
2019-05-10T16:27:28.118Z,1.70
2019-05-10T16:28:28.105Z,1.00
2019-05-10T16:29:28.087Z,1.60
2019-05-10T16:32:29.484Z,2.10
2019-05-10T16:33:28.078Z,2.10
2019-05-10T16:34:32.241Z,2.00
2019-05-10T16:35:38.380Z,1.00
2019-05-10T16:37:28.131Z,1.80
2019-05-10T16:38:28.089Z,1.40
2019-05-10T16:39:28.098Z,1.10
2019-05-10T16:40:28.097Z,1.00
2019-05-10T16:42:34.671Z,1.30
2019-05-10T16:43:28.078Z,1.60
2019-05-10T16:44:28.081Z,1.30
2019-05-10T16:45:28.090Z,1.00
2019-05-10T16:47:28.102Z,1.30
2019-05-10T16:48:28.516Z,1.50
2019-05-10T16:49:28.099Z,1.80
2019-05-10T16:50:31.538Z,1.10
2019-05-10T16:52:28.236Z,1.00
2019-05-10T16:53:31.238Z,1.40
2019-05-10T16:54:28.157Z,2.50
2019-05-10T16:55:28.118Z,1.40
2019-05-10T16:57:31.987Z,2.90
2019-05-10T16:58:28.087Z,6.10
2019-05-10T16:59:29.992Z,3.20
2019-05-10T17:00:28.134Z,2.90
2019-05-10T17:02:28.206Z,3.20
2019-05-10T17:03:28.734Z,2.90
2019-05-10T17:04:31.997Z,3.40
2019-05-10T17:05:28.149Z,6.10
2019-05-10T17:08:30.598Z,3.40
2019-05-10T17:09:28.144Z,4.60
2019-05-10T17:10:33.092Z,4.90
2019-05-10T17:11:28.111Z,3.40
2019-05-10T17:13:28.161Z,5.30
2019-05-10T17:14:28.183Z,3.00
2019-05-10T17:15:28.116Z,3.20
2019-05-10T17:16:28.153Z,2.30
2019-05-10T17:18:28.139Z,2.50
2019-05-10T17:20:28.198Z,2.90
2019-05-10T17:21:28.128Z,4.80
2019-05-10T17:23:28.166Z,5.10